Time;durP1;ratioP1;P1;durP2;ratioP2;P2;SDS_P1;SDS_P2;PMS_P1;PMS_P2;Temp;Humidity;BMP_temperature;BMP_pressure;BME280_temperature;BME280_humidity;BME280_pressure;Samples;Min_cycle;Max_cycle;Signal;HPM_P1;HPM_P2
2023/06/18 00:01:33;;;;;;;6.78;6.28;;;;;;;17.99;69.21;98312.69;4168873;28;20207;-51
2023/06/18 00:03:35;;;;;;;6.53;6.03;;;;;;;17.94;68.92;98308.06;4141019;28;20209;-49
2023/06/18 00:05:37;;;;;;;6.45;5.95;;;;;;;17.97;68.90;98315.75;4140512;28;20233;-50
2023/06/18 00:07:39;;;;;;;6.22;5.72;;;;;;;18.00;68.79;98306.00;4143636;28;20231;-50
2023/06/18 00:09:41;;;;;;;7.22;6.57;;;;;;;18.02;68.59;98306.53;4136822;28;20213;-50
2023/06/18 00:11:42;;;;;;;6.65;6.25;;;;;;;17.89;68.73;98312.81;4153828;28;20676;-50
2023/06/18 00:13:44;;;;;;;6.88;6.43;;;;;;;17.90;68.68;98308.94;4168144;28;20199;-50
2023/06/18 00:15:46;;;;;;;6.95;6.35;;;;;;;17.83;69.36;98302.97;4150118;28;20235;-51
2023/06/18 00:17:48;;;;;;;6.22;5.82;;;;;;;17.74;69.17;98299.25;4138022;28;20309;-50
2023/06/18 00:19:50;;;;;;;6.93;6.43;;;;;;;17.72;69.77;98304.28;4137104;28;20213;-50
2023/06/18 00:21:52;;;;;;;6.88;6.38;;;;;;;17.72;69.81;98313.38;4170114;28;20670;-51
2023/06/18 00:23:53;;;;;;;7.30;6.35;;;;;;;17.75;70.29;98307.25;4154916;28;20209;-50
2023/06/18 00:25:55;;;;;;;7.53;6.65;;;;;;;17.71;70.52;98299.84;4168772;28;20229;-50
2023/06/18 00:27:57;;;;;;;7.22;6.63;;;;;;;17.72;70.81;98302.31;4140918;28;20256;-51
2023/06/18 00:30:04;;;;;;;7.07;6.55;;;;;;;17.68;70.95;98311.50;4166976;28;20208;-50
2023/06/18 00:32:07;;;;;;;6.43;5.93;;;;;;;17.55;71.56;98306.75;4136647;28;20293;-50
2023/06/18 00:34:09;;;;;;;7.00;6.50;;;;;;;17.48;71.93;98301.59;4153759;28;20225;-50
2023/06/18 00:36:12;;;;;;;6.50;6.00;;;;;;;17.43;72.53;98295.28;4137715;28;20213;-50
2023/06/18 00:38:16;;;;;;;6.50;5.95;;;;;;;17.37;72.27;98302.00;4143793;28;20553;-50
2023/06/18 00:40:18;;;;;;;6.53;6.03;;;;;;;17.33;72.62;98298.19;4169856;28;20850;-51
2023/06/18 00:42:20;;;;;;;6.30;5.90;;;;;;;17.40;72.66;98290.38;4143676;28;20232;-51
2023/06/18 00:44:22;;;;;;;7.35;6.65;;;;;;;17.32;72.35;98288.25;4141575;28;20234;-49
2023/06/18 00:46:25;;;;;;;6.97;6.38;;;;;;;17.30;71.98;98293.25;4142592;28;20232;-51
2023/06/18 00:48:28;;;;;;;7.45;6.78;;;;;;;17.25;71.77;98282.28;4142734;28;20702;-50
2023/06/18 00:50:32;;;;;;;6.95;6.35;;;;;;;17.21;71.72;98293.13;4128331;28;20210;-50
2023/06/18 00:52:36;;;;;;;7.43;6.85;;;;;;;17.14;71.57;98297.34;4148231;28;20209;-50
2023/06/18 00:54:40;;;;;;;7.95;7.10;;;;;;;17.10;71.64;98288.00;4168999;28;20239;-50
2023/06/18 00:56:51;;;;;;;6.40;5.90;;;;;;;17.07;72.11;98299.66;4137404;28;20202;-50
2023/06/18 00:58:53;;;;;;;7.25;6.75;;;;;;;17.10;72.68;98294.38;4133626;28;20217;-50
2023/06/18 01:00:55;;;;;;;7.97;6.93;;;;;;;17.09;73.01;98292.72;4136656;28;20213;-50
2023/06/18 01:03:02;;;;;;;7.75;7.13;;;;;;;17.08;73.22;98294.97;4142050;28;20244;-50
2023/06/18 01:05:09;;;;;;;7.22;6.72;;;;;;;17.05;73.40;98291.66;4155581;28;20231;-51
2023/06/18 01:07:13;;;;;;;6.82;6.32;;;;;;;17.01;73.77;98292.56;4140892;28;20213;-51
2023/06/18 01:09:24;;;;;;;6.15;5.63;;;;;;;17.00;74.09;98285.38;4144032;28;20233;-51
2023/06/18 01:11:28;;;;;;;6.78;6.18;;;;;;;16.99;74.22;98289.28;4144180;28;20213;-50
2023/06/18 01:13:33;;;;;;;6.80;6.05;;;;;;;16.95;74.21;98290.97;4132000;28;20730;-51
2023/06/18 01:15:35;;;;;;;7.70;6.93;;;;;;;16.92;74.19;98291.56;4150063;28;20654;-50
2023/06/18 01:17:37;;;;;;;7.20;6.55;;;;;;;16.89;74.11;98289.38;4141841;28;20209;-50
2023/06/18 01:19:42;;;;;;;6.53;5.82;;;;;;;16.80;74.01;98293.09;4142100;28;20224;-50
2023/06/18 01:21:45;;;;;;;6.90;6.40;;;;;;;16.75;74.69;98288.47;4167867;28;20334;-50
2023/06/18 01:24:04;;;;;;;7.65;7.00;;;;;;;16.70;74.06;98290.47;4167410;28;20273;-50
2023/06/18 01:26:06;;;;;;;5.85;5.43;;;;;;;16.72;74.95;98280.78;4120733;28;20559;-51
2023/06/18 01:28:08;;;;;;;7.05;6.55;;;;;;;16.71;75.16;98290.19;4119769;28;20388;-50
2023/06/18 01:30:11;;;;;;;6.00;5.57;;;;;;;16.68;75.06;98288.00;4132294;28;20686;-50
2023/06/18 01:32:13;;;;;;;6.80;6.20;;;;;;;16.66;75.03;98287.47;4168149;28;20216;-50
2023/06/18 01:34:15;;;;;;;6.47;6.05;;;;;;;16.62;75.31;98285.59;4137924;28;20233;-50
2023/06/18 01:36:40;;;;;;;6.65;6.15;;;;;;;16.62;75.40;98297.47;4152264;28;20211;-49
2023/06/18 01:38:45;;;;;;;6.57;6.07;;;;;;;16.61;75.79;98293.06;4156345;28;20205;-50
2023/06/18 01:40:59;;;;;;;5.70;5.30;;;;;;;16.62;75.51;98297.47;4151822;28;20201;-51
2023/06/18 01:43:13;;;;;;;7.90;7.25;;;;;;;16.58;75.38;98293.66;4170096;28;20665;-50
2023/06/18 01:45:21;;;;;;;6.70;6.20;;;;;;;16.57;75.68;98293.94;4138055;28;20244;-50
2023/06/18 01:47:26;;;;;;;7.25;6.75;;;;;;;16.52;75.72;98300.34;4152372;28;20224;-50
2023/06/18 01:49:29;;;;;;;7.03;6.53;;;;;;;16.38;76.18;98291.13;4145641;28;20297;-50
2023/06/18 01:51:32;;;;;;;7.65;7.05;;;;;;;16.32;76.19;98278.44;4142351;28;20205;-50
2023/06/18 01:53:35;;;;;;;7.85;7.25;;;;;;;16.24;77.02;98272.75;4140620;28;20216;-51
2023/06/18 01:55:38;;;;;;;7.28;6.72;;;;;;;16.34;76.68;98267.91;4157595;28;20236;-50
2023/06/18 01:57:40;;;;;;;7.53;6.93;;;;;;;16.35;76.01;98275.09;4139392;28;20798;-50
2023/06/18 01:59:43;;;;;;;7.68;7.18;;;;;;;16.38;75.61;98269.03;4170692;28;20662;-50
2023/06/18 02:01:45;;;;;;;7.07;6.55;;;;;;;16.31;75.69;98282.34;4120660;28;20211;-51
2023/06/18 02:03:48;;;;;;;8.05;7.50;;;;;;;16.24;75.79;98270.78;4139222;28;20204;-51
2023/06/18 02:05:50;;;;;;;9.02;7.88;;;;;;;16.25;76.12;98275.22;4138829;28;20226;-50
2023/06/18 02:07:52;;;;;;;7.80;7.20;;;;;;;16.21;75.79;98268.63;4146412;28;20903;-50
2023/06/18 02:09:53;;;;;;;8.48;7.88;;;;;;;16.13;77.07;98269.25;4146086;28;20217;-50
2023/06/18 02:11:55;;;;;;;7.93;7.32;;;;;;;16.16;76.38;98260.38;4126452;28;20234;-50
2023/06/18 02:13:57;;;;;;;8.75;8.15;;;;;;;16.06;77.04;98254.97;4154790;28;20275;-50
2023/06/18 02:15:59;;;;;;;8.50;7.70;;;;;;;16.05;77.22;98260.78;4142655;28;20674;-50
2023/06/18 02:18:01;;;;;;;7.95;7.45;;;;;;;16.14;76.90;98259.84;4142844;28;20209;-50
2023/06/18 02:20:03;;;;;;;8.93;8.13;;;;;;;16.05;77.12;98264.38;4155459;28;20300;-50
2023/06/18 02:22:05;;;;;;;8.30;7.70;;;;;;;16.00;76.97;98258.91;4171663;28;20837;-50
2023/06/18 02:24:07;;;;;;;8.27;7.72;;;;;;;15.96;76.87;98271.63;4156972;28;20208;-50
2023/06/18 02:26:08;;;;;;;8.02;7.43;;;;;;;15.91;77.06;98271.66;4170574;28;20200;-50
2023/06/18 02:28:11;;;;;;;8.40;7.80;;;;;;;15.96;77.29;98277.16;4141466;28;20672;-50
2023/06/18 02:30:13;;;;;;;8.40;7.75;;;;;;;15.99;77.31;98273.81;4170646;28;20576;-51
2023/06/18 02:32:15;;;;;;;7.53;6.93;;;;;;;16.03;77.34;98277.63;4156621;28;20623;-50
2023/06/18 02:34:18;;;;;;;7.95;7.00;;;;;;;16.03;77.44;98277.63;4139300;28;20332;-50
2023/06/18 02:36:21;;;;;;;7.72;7.22;;;;;;;16.02;77.47;98281.50;4139435;28;20755;-50
2023/06/18 02:38:22;;;;;;;6.95;6.40;;;;;;;15.99;77.85;98282.09;4171155;28;20228;-50
2023/06/18 02:40:25;;;;;;;8.07;7.38;;;;;;;15.93;78.07;98287.94;4156876;28;20271;-50
2023/06/18 02:42:26;;;;;;;7.00;6.50;;;;;;;15.87;78.51;98287.16;4141941;28;20692;-50
2023/06/18 02:44:28;;;;;;;7.97;7.47;;;;;;;15.81;78.42;98288.31;4170475;28;20228;-50
2023/06/18 02:46:30;;;;;;;8.13;7.43;;;;;;;15.84;78.54;98284.97;4140730;28;20229;-50
2023/06/18 02:48:32;;;;;;;8.23;7.63;;;;;;;15.84;78.55;98290.50;4146321;28;20296;-50
2023/06/18 02:50:33;;;;;;;7.38;6.78;;;;;;;15.84;78.53;98279.47;4154435;28;20235;-50
2023/06/18 02:52:35;;;;;;;7.82;7.22;;;;;;;15.82;78.53;98281.69;4140134;28;20228;-50
2023/06/18 02:54:37;;;;;;;7.72;7.13;;;;;;;15.79;78.70;98287.81;4137838;28;20221;-50
2023/06/18 02:56:38;;;;;;;8.23;7.53;;;;;;;15.80;78.77;98283.94;4154948;28;20211;-50
2023/06/18 02:58:40;;;;;;;7.75;7.15;;;;;;;15.77;78.90;98283.69;4143472;28;20213;-50
2023/06/18 03:00:42;;;;;;;8.43;7.82;;;;;;;15.72;79.11;98281.78;4134734;28;20243;-50
2023/06/18 03:02:44;;;;;;;8.70;7.97;;;;;;;15.64;79.33;98276.88;4135973;28;20309;-50
2023/06/18 03:04:46;;;;;;;7.47;6.90;;;;;;;15.48;79.90;98285.53;4144999;28;20260;-50
2023/06/18 03:06:47;;;;;;;7.95;7.35;;;;;;;15.45;79.99;98286.97;4156308;28;20287;-51
2023/06/18 03:08:49;;;;;;;8.52;7.93;;;;;;;15.45;80.02;98280.63;4147363;28;20643;-50
2023/06/18 03:10:51;;;;;;;7.65;7.05;;;;;;;15.45;79.98;98286.97;4146063;28;20612;-50
2023/06/18 03:12:53;;;;;;;8.10;7.50;;;;;;;15.40;79.94;98289.75;4147251;28;20616;-50
2023/06/18 03:14:55;;;;;;;7.65;7.05;;;;;;;15.39;80.04;98282.59;4142601;28;20233;-51
2023/06/18 03:16:57;;;;;;;8.23;7.55;;;;;;;15.38;80.44;98294.75;4155006;28;20205;-51
2023/06/18 03:18:58;;;;;;;6.60;6.18;;;;;;;15.41;80.42;98291.41;4143676;28;20247;-51
2023/06/18 03:21:00;;;;;;;7.68;6.97;;;;;;;15.37;80.23;98284.78;4146027;28;20215;-49
2023/06/18 03:23:02;;;;;;;7.40;6.75;;;;;;;15.36;80.28;98290.63;4143185;28;20259;-50
2023/06/18 03:25:05;;;;;;;7.72;7.15;;;;;;;15.34;80.59;98290.91;4140856;28;20704;-51
2023/06/18 03:27:07;;;;;;;8.13;7.53;;;;;;;15.34;80.25;98282.63;4144292;28;20679;-50
2023/06/18 03:29:09;;;;;;;6.90;6.38;;;;;;;15.35;80.29;98295.31;4155051;28;20275;-50
2023/06/18 03:31:10;;;;;;;6.75;6.25;;;;;;;15.35;80.57;98287.03;4129888;28;20210;-50
2023/06/18 03:33:12;;;;;;;8.25;7.65;;;;;;;15.32;81.03;98298.66;4153704;28;20304;-51
2023/06/18 03:35:14;;;;;;;7.63;7.13;;;;;;;15.34;81.25;98288.16;4152188;28;20279;-50
2023/06/18 03:37:17;;;;;;;7.32;6.63;;;;;;;15.28;81.10;98292.00;4144743;28;20202;-50
2023/06/18 03:39:20;;;;;;;7.47;6.88;;;;;;;15.25;81.23;98298.09;4168830;28;20290;-50
2023/06/18 03:41:22;;;;;;;7.68;7.07;;;;;;;15.25;81.15;98289.84;4154277;28;21076;-49
2023/06/18 03:43:24;;;;;;;7.60;7.00;;;;;;;15.30;80.97;98289.78;4170645;28;20251;-51
2023/06/18 03:45:25;;;;;;;8.27;7.68;;;;;;;15.35;81.11;98298.06;4126639;28;20222;-50
2023/06/18 03:47:27;;;;;;;8.45;7.85;;;;;;;15.31;81.02;98285.91;4137904;28;20222;-51
2023/06/18 03:49:29;;;;;;;10.27;9.38;;;;;;;15.22;81.03;98282.13;4170521;28;20208;-50
2023/06/18 03:51:31;;;;;;;9.90;9.20;;;;;;;15.01;81.01;98277.00;4145177;28;20213;-51
2023/06/18 03:53:36;;;;;;;10.10;9.30;;;;;;;15.02;81.73;98282.25;4145309;28;20205;-50
2023/06/18 03:55:41;;;;;;;9.90;9.20;;;;;;;15.02;81.80;98282.25;4140011;28;20739;-50
2023/06/18 03:57:43;;;;;;;8.43;7.75;;;;;;;15.05;81.49;98286.38;4139653;28;20249;-51
2023/06/18 03:59:45;;;;;;;9.13;8.45;;;;;;;15.04;81.82;98291.03;4140305;28;20212;-50
2023/06/18 04:01:46;;;;;;;8.68;8.07;;;;;;;15.07;81.60;98284.13;4143987;28;20202;-50
2023/06/18 04:03:48;;;;;;;9.52;8.68;;;;;;;15.09;81.57;98293.78;4154580;28;20667;-51
2023/06/18 04:05:50;;;;;;;8.77;8.07;;;;;;;15.10;81.40;98289.09;4142453;28;20228;-50
2023/06/18 04:07:52;;;;;;;9.40;8.65;;;;;;;15.20;81.44;98294.53;4140579;28;20221;-50
2023/06/18 04:09:53;;;;;;;9.05;8.25;;;;;;;15.19;81.41;98298.41;4135756;28;20214;-50
2023/06/18 04:11:56;;;;;;;9.00;8.20;;;;;;;15.18;81.41;98289.34;4135664;28;20263;-50
2023/06/18 04:13:58;;;;;;;8.65;8.05;;;;;;;15.17;80.94;98300.63;4170262;28;20212;-50
2023/06/18 04:16:00;;;;;;;8.35;7.75;;;;;;;15.22;81.20;98295.91;4167814;28;20238;-52
2023/06/18 04:18:02;;;;;;;8.48;7.88;;;;;;;15.19;81.32;98293.72;4172549;28;20212;-50
2023/06/18 04:20:05;;;;;;;8.73;7.93;;;;;;;15.21;81.11;98291.50;4139713;28;20209;-51
2023/06/18 04:22:06;;;;;;;8.40;7.80;;;;;;;15.26;81.19;98294.25;4143175;28;20218;-50
2023/06/18 04:24:08;;;;;;;8.18;7.57;;;;;;;15.31;81.22;98296.13;4135710;28;20948;-50
2023/06/18 04:26:10;;;;;;;7.63;7.13;;;;;;;15.39;81.33;98290.03;4171681;28;20231;-50
2023/06/18 04:28:12;;;;;;;8.23;7.40;;;;;;;15.27;80.96;98284.84;4142144;28;20232;-50
2023/06/18 04:30:13;;;;;;;7.00;6.50;;;;;;;15.34;80.27;98293.66;4135846;28;20213;-50
2023/06/18 04:32:15;;;;;;;7.00;6.50;;;;;;;15.28;80.13;98289.25;4143995;28;20260;-50
2023/06/18 04:34:17;;;;;;;9.68;8.98;;;;;;;15.31;80.41;98287.84;4142304;28;20244;-50
2023/06/18 04:36:18;;;;;;;6.97;6.53;;;;;;;15.29;80.39;98287.34;4159319;28;20213;-50
2023/06/18 04:38:21;;;;;;;7.38;6.88;;;;;;;15.34;80.26;98290.91;4137907;28;20248;-50
2023/06/18 04:40:23;;;;;;;7.50;6.90;;;;;;;15.41;80.02;98291.41;4166883;28;20247;-50
2023/06/18 04:42:25;;;;;;;7.25;6.65;;;;;;;15.46;79.60;98288.63;4168577;28;20211;-50
2023/06/18 04:44:28;;;;;;;6.88;6.32;;;;;;;15.47;80.13;98284.75;4138199;28;20230;-50
2023/06/18 04:46:30;;;;;;;7.63;6.93;;;;;;;15.51;80.00;98285.78;4137650;28;20263;-50
2023/06/18 04:48:34;;;;;;;6.95;6.45;;;;;;;15.56;79.84;98285.75;4157192;28;20264;-51
2023/06/18 04:50:35;;;;;;;6.20;5.80;;;;;;;15.55;79.73;98292.41;4126714;28;20648;-51
2023/06/18 04:52:38;;;;;;;8.38;7.10;;;;;;;15.55;79.47;98292.41;4168691;28;20278;-51
2023/06/18 04:54:42;;;;;;;7.80;7.18;;;;;;;15.63;79.71;98286.25;4141878;28;20221;-50
2023/06/18 04:56:44;;;;;;;20.20;7.60;;;;;;;15.67;79.10;98295.63;4137685;28;20213;-50
2023/06/18 04:58:45;;;;;;;8.10;7.50;;;;;;;15.66;78.82;98296.72;4138086;28;20205;-51
2023/06/18 05:00:48;;;;;;;7.65;7.13;;;;;;;15.72;79.19;98294.75;4142638;28;20662;-50
2023/06/18 05:02:49;;;;;;;8.73;7.40;;;;;;;15.74;79.43;98290.59;4134822;28;20210;-51
2023/06/18 05:04:52;;;;;;;6.82;6.22;;;;;;;15.78;79.52;98288.09;4131785;28;20305;-50
2023/06/18 05:06:53;;;;;;;6.95;6.43;;;;;;;15.76;79.37;98288.38;4152586;28;20667;-50
2023/06/18 05:08:55;;;;;;;6.60;6.10;;;;;;;15.81;79.18;98287.50;4143223;28;21003;-50
2023/06/18 05:11:00;;;;;;;6.78;6.25;;;;;;;15.87;79.88;98289.94;4152265;28;20819;-50
2023/06/18 05:13:02;;;;;;;6.38;5.88;;;;;;;15.94;80.07;98290.41;4136796;28;20291;-50
2023/06/18 05:15:05;;;;;;;6.85;6.25;;;;;;;15.89;79.89;98292.41;4136386;28;20269;-51
2023/06/18 05:17:07;;;;;;;7.25;6.75;;;;;;;15.99;79.23;98293.13;4139904;28;20738;-51
2023/06/18 05:19:09;;;;;;;9.10;7.93;;;;;;;16.07;79.62;98284.22;4153174;28;20216;-51
2023/06/18 05:21:11;;;;;;;8.75;8.15;;;;;;;16.23;79.70;98288.47;4155078;28;20200;-50
2023/06/18 05:23:12;;;;;;;9.75;6.90;;;;;;;16.31;79.01;98285.09;4136039;28;20737;-50
2023/06/18 05:25:14;;;;;;;8.63;8.02;;;;;;;16.09;80.30;98286.69;4169430;28;20228;-50
2023/06/18 05:27:16;;;;;;;7.75;7.15;;;;;;;16.28;79.11;98291.19;4142243;28;20217;-50
2023/06/18 05:29:18;;;;;;;9.13;8.23;;;;;;;16.20;80.22;98297.34;4123327;28;20214;-50
2023/06/18 05:31:19;;;;;;;8.18;7.68;;;;;;;16.30;79.73;98294.47;4139943;28;20214;-50
2023/06/18 05:33:21;;;;;;;8.02;7.40;;;;;;;16.53;78.12;98299.22;4153387;28;20217;-50
2023/06/18 05:35:23;;;;;;;16.33;7.53;;;;;;;16.73;78.74;98298.16;4167327;28;20231;-50
2023/06/18 05:37:25;;;;;;;8.57;7.85;;;;;;;16.93;79.02;98298.75;4142608;28;20202;-50
2023/06/18 05:39:26;;;;;;;9.10;8.45;;;;;;;17.09;78.59;98297.41;4169135;28;20205;-50
2023/06/18 05:41:28;;;;;;;8.38;7.68;;;;;;;17.24;78.76;98302.72;4138245;28;21076;-50
2023/06/18 05:43:30;;;;;;;8.85;8.25;;;;;;;17.47;77.89;98304.66;4142658;28;20205;-50
2023/06/18 05:45:32;;;;;;;9.45;8.52;;;;;;;17.67;77.16;98302.41;4141209;28;20233;-50
2023/06/18 05:47:33;;;;;;;8.50;7.90;;;;;;;17.86;76.12;98307.91;4168267;28;20795;-50
2023/06/18 05:49:35;;;;;;;10.05;7.45;;;;;;;18.03;75.04;98306.22;4167718;28;20239;-51
2023/06/18 05:51:37;;;;;;;7.93;7.43;;;;;;;18.22;74.13;98300.63;4139624;28;20244;-50
2023/06/18 05:53:38;;;;;;;8.85;8.15;;;;;;;18.31;73.69;98294.13;4141809;28;20240;-50
2023/06/18 05:55:40;;;;;;;9.00;8.30;;;;;;;18.48;72.68;98304.59;4121593;28;20612;-50
2023/06/18 05:57:42;;;;;;;7.75;7.15;;;;;;;18.27;68.86;98303.31;4136830;28;20616;-50
2023/06/18 05:59:47;;;;;;;7.45;6.85;;;;;;;18.45;70.76;98296.91;4143095;28;20209;-51
2023/06/18 06:01:48;;;;;;;7.90;7.40;;;;;;;18.47;71.22;98302.97;4141350;28;20582;-51
2023/06/18 06:03:50;;;;;;;8.52;7.90;;;;;;;18.40;70.01;98310.88;4153491;28;20209;-51
2023/06/18 06:05:52;;;;;;;8.52;7.82;;;;;;;18.63;70.15;98307.09;4148735;28;20617;-50
2023/06/18 06:07:54;;;;;;;7.00;6.45;;;;;;;18.88;69.37;98310.19;4125761;28;20237;-50
2023/06/18 06:09:56;;;;;;;8.13;7.53;;;;;;;18.97;68.20;98313.06;4142672;28;20216;-50
2023/06/18 06:11:58;;;;;;;7.97;7.43;;;;;;;19.05;68.85;98310.38;4151900;28;20271;-50
2023/06/18 06:14:00;;;;;;;7.85;7.25;;;;;;;19.19;68.25;98315.91;4136897;28;20234;-50
2023/06/18 06:16:05;;;;;;;8.75;8.15;;;;;;;19.21;67.49;98308.97;4164289;28;20208;-50
2023/06/18 06:18:10;;;;;;;7.22;6.63;;;;;;;19.46;66.71;98307.56;4132587;28;20248;-50
2023/06/18 06:20:11;;;;;;;8.43;6.25;;;;;;;19.64;66.01;98312.94;4137806;28;20209;-50
2023/06/18 06:22:13;;;;;;;8.07;7.30;;;;;;;19.76;64.40;98304.06;4141955;28;20229;-50
2023/06/18 06:24:18;;;;;;;6.70;6.20;;;;;;;19.87;64.69;98311.03;4167116;28;20212;-50
2023/06/18 06:26:19;;;;;;;6.50;5.90;;;;;;;19.82;60.06;98308.38;4151907;28;20299;-51
2023/06/18 06:28:21;;;;;;;8.65;5.60;;;;;;;20.09;61.51;98311.06;4151526;28;20220;-50
2023/06/18 06:30:23;;;;;;;7.35;5.90;;;;;;;20.18;61.14;98306.38;4134222;28;20687;-50
2023/06/18 06:32:25;;;;;;;6.00;5.57;;;;;;;20.18;60.74;98307.19;4140363;28;20205;-50
2023/06/18 06:34:27;;;;;;;5.63;5.22;;;;;;;20.47;60.25;98298.38;4151869;28;20326;-50
2023/06/18 06:36:29;;;;;;;6.60;6.10;;;;;;;20.53;60.20;98308.22;4142805;28;20221;-50
2023/06/18 06:38:30;;;;;;;6.40;5.80;;;;;;;20.77;59.70;98308.69;4168601;28;20203;-50
2023/06/18 06:40:32;;;;;;;5.97;5.57;;;;;;;20.83;61.47;98304.59;4138770;28;20209;-50
2023/06/18 06:42:35;;;;;;;6.50;6.00;;;;;;;21.15;60.30;98309.81;4141506;28;20213;-50
2023/06/18 06:44:37;;;;;;;8.20;6.03;;;;;;;21.37;60.51;98306.94;4135507;28;20229;-50
2023/06/18 06:46:39;;;;;;;6.05;5.65;;;;;;;21.47;59.92;98312.19;4151837;28;20251;-50
2023/06/18 06:48:40;;;;;;;7.13;6.53;;;;;;;21.67;59.45;98322.72;4144004;28;20792;-49
2023/06/18 06:50:42;;;;;;;7.13;6.55;;;;;;;21.62;59.17;98314.50;4136334;28;20900;-50
2023/06/18 06:52:44;;;;;;;7.25;6.75;;;;;;;21.87;59.26;98322.06;4136110;28;20249;-50
2023/06/18 06:54:47;;;;;;;7.38;6.88;;;;;;;21.87;60.27;98322.06;4139771;28;20220;-51
2023/06/18 06:56:49;;;;;;;6.75;6.15;;;;;;;22.10;58.63;98326.34;4151991;28;20204;-50
2023/06/18 06:58:50;;;;;;;7.43;6.82;;;;;;;22.30;59.21;98325.66;4138223;28;20677;-50
2023/06/18 07:00:54;;;;;;;6.85;6.25;;;;;;;22.44;58.00;98321.56;4170372;28;20236;-50
2023/06/18 07:02:56;;;;;;;6.65;6.15;;;;;;;22.32;57.64;98317.78;4145445;28;20654;-51
2023/06/18 07:04:58;;;;;;;7.45;6.85;;;;;;;22.43;56.78;98324.69;4134511;28;20275;-51
2023/06/18 07:07:00;;;;;;;7.18;6.60;;;;;;;22.35;57.69;98328.25;4143801;28;20208;-50
2023/06/18 07:09:03;;;;;;;7.72;7.13;;;;;;;21.86;57.28;98326.00;4144509;28;20233;-51
2023/06/18 07:11:05;;;;;;;6.47;6.07;;;;;;;22.05;57.87;98323.72;4156258;28;20220;-51
2023/06/18 07:13:06;;;;;;;6.63;6.18;;;;;;;22.38;57.36;98322.03;4165890;28;20216;-50
2023/06/18 07:15:09;;;;;;;6.78;6.28;;;;;;;22.76;56.55;98322.97;4137228;28;20224;-49
2023/06/18 07:17:10;;;;;;;6.70;6.20;;;;;;;23.01;56.97;98324.81;4145926;28;20208;-50
2023/06/18 07:19:12;;;;;;;7.85;7.32;;;;;;;23.22;56.54;98318.19;4144027;28;20759;-50
2023/06/18 07:21:14;;;;;;;11.32;6.63;;;;;;;23.39;56.11;98328.44;4143699;28;20272;-50
2023/06/18 07:23:16;;;;;;;8.82;7.07;;;;;;;23.59;56.10;98324.84;4143493;28;20209;-50
2023/06/18 07:25:17;;;;;;;6.85;6.35;;;;;;;23.71;55.80;98327.75;4142771;28;20287;-51
2023/06/18 07:27:19;;;;;;;5.75;5.25;;;;;;;23.66;56.86;98320.38;4155573;28;20234;-50
2023/06/18 07:29:21;;;;;;;6.20;5.70;;;;;;;23.63;55.44;98315.44;4144682;28;20235;-50
2023/06/18 07:31:23;;;;;;;5.55;5.15;;;;;;;23.94;55.08;98321.50;4170607;28;20218;-50
2023/06/18 07:33:24;;;;;;;6.60;6.00;;;;;;;23.94;55.33;98318.72;4140074;28;20216;-50
2023/06/18 07:35:26;;;;;;;6.50;6.05;;;;;;;23.98;54.67;98316.84;4143169;28;20278;-50
2023/06/18 07:37:28;;;;;;;6.25;5.82;;;;;;;24.13;53.78;98313.44;4136184;28;21538;-50
2023/06/18 07:39:30;;;;;;;5.90;5.50;;;;;;;24.43;53.24;98312.97;4136795;28;20231;-50
2023/06/18 07:41:31;;;;;;;6.38;5.97;;;;;;;24.37;52.79;98322.75;4137839;28;20213;-50
2023/06/18 07:43:33;;;;;;;6.63;6.03;;;;;;;24.76;53.47;98315.78;4139832;28;20213;-50
2023/06/18 07:45:35;;;;;;;6.38;5.88;;;;;;;24.93;52.48;98305.19;4142940;28;20228;-51
2023/06/18 07:47:37;;;;;;;5.97;5.47;;;;;;;25.21;51.55;98308.94;4138014;28;20296;-50
2023/06/18 07:49:38;;;;;;;5.38;4.90;;;;;;;24.95;52.06;98302.88;4140993;28;20276;-49
2023/06/18 07:51:40;;;;;;;6.85;6.35;;;;;;;25.13;52.39;98307.06;4170978;28;20211;-50
2023/06/18 07:53:42;;;;;;;5.85;5.13;;;;;;;25.15;52.59;98310.34;4147823;28;20200;-50
2023/06/18 07:55:43;;;;;;;6.45;5.95;;;;;;;25.48;51.83;98311.06;4144009;28;20236;-50
2023/06/18 07:57:45;;;;;;;7.00;5.93;;;;;;;25.36;51.70;98308.28;4169606;28;20344;-49
2023/06/18 07:59:50;;;;;;;5.55;5.15;;;;;;;25.93;51.16;98306.09;4143869;28;20634;-51
2023/06/18 08:01:52;;;;;;;5.80;5.38;;;;;;;26.01;50.53;98302.34;4144112;28;20326;-50
2023/06/18 08:03:54;;;;;;;6.55;5.95;;;;;;;26.17;50.81;98311.63;4139966;28;20303;-51
2023/06/18 08:05:56;;;;;;;6.90;6.22;;;;;;;26.48;51.00;98311.75;4152216;28;20591;-50
2023/06/18 08:07:57;;;;;;;8.50;6.80;;;;;;;26.46;48.53;98311.25;4128288;28;20216;-50
2023/06/18 08:09:59;;;;;;;5.50;5.10;;;;;;;26.73;49.04;98310.44;4167652;28;20266;-51
2023/06/18 08:12:01;;;;;;;5.72;5.22;;;;;;;26.72;48.37;98311.63;4136479;28;20205;-50
2023/06/18 08:14:03;;;;;;;6.38;5.88;;;;;;;26.81;47.96;98309.47;4153113;28;20307;-51
2023/06/18 08:16:05;;;;;;;6.60;6.05;;;;;;;26.48;48.88;98311.75;4143230;28;20592;-51
2023/06/18 08:18:07;;;;;;;13.85;6.07;;;;;;;27.03;47.14;98308.84;4149794;28;20208;-50
2023/06/18 08:20:09;;;;;;;6.60;6.00;;;;;;;27.34;46.22;98303.25;4135430;28;20299;-50
2023/06/18 08:22:11;;;;;;;6.18;5.68;;;;;;;27.35;46.46;98302.06;4147594;28;20215;-51
2023/06/18 08:24:13;;;;;;;7.05;6.47;;;;;;;27.53;46.50;98303.28;4139165;28;20213;-50
2023/06/18 08:26:16;;;;;;;6.57;6.00;;;;;;;27.75;47.24;98299.81;4165923;28;20243;-50
2023/06/18 08:28:17;;;;;;;5.90;5.50;;;;;;;27.84;45.63;98303.25;4136601;28;20267;-50
2023/06/18 08:30:19;;;;;;;5.78;5.40;;;;;;;28.07;46.21;98295.75;4143663;28;20579;-51
2023/06/18 08:32:21;;;;;;;5.43;5.03;;;;;;;28.03;45.06;98300.47;4170607;28;20211;-50
2023/06/18 08:34:23;;;;;;;6.63;6.03;;;;;;;28.42;45.10;98285.25;4141854;28;20236;-51
2023/06/18 08:36:25;;;;;;;6.70;6.07;;;;;;;28.47;43.22;98279.31;4152799;28;20789;-53
2023/06/18 08:38:27;;;;;;;5.22;4.82;;;;;;;27.97;43.05;98285.06;4140323;28;20205;-49
2023/06/18 08:40:37;;;;;;;5.35;4.63;;;;;;;28.14;42.66;98284.63;4170140;28;20211;-50
2023/06/18 08:42:40;;;;;;;5.45;5.05;;;;;;;28.57;44.11;98278.69;4140869;28;20228;-49
2023/06/18 08:44:47;;;;;;;10.05;5.30;;;;;;;28.72;43.39;98280.56;4140467;28;20232;-49
2023/06/18 08:46:49;;;;;;;5.78;5.38;;;;;;;28.36;41.39;98280.25;4151076;28;20208;-50
2023/06/18 08:48:59;;;;;;;5.50;5.10;;;;;;;28.37;43.11;98274.28;4142791;28;20225;-49
2023/06/18 08:51:04;;;;;;;5.30;4.90;;;;;;;28.42;41.66;98268.34;4167168;28;20212;-49
2023/06/18 08:53:11;;;;;;;5.65;5.25;;;;;;;28.81;40.88;98266.25;4144761;28;20674;-49
2023/06/18 08:55:14;;;;;;;5.32;4.90;;;;;;;29.04;40.77;98267.91;4141687;28;20232;-50
2023/06/18 08:57:25;;;;;;;7.25;6.45;;;;;;;29.10;40.59;98262.75;4134546;28;20240;-49
2023/06/18 08:59:27;;;;;;;5.20;4.70;;;;;;;29.02;40.78;98270.31;4134556;28;20212;-48
2023/06/18 09:01:29;;;;;;;4.97;4.60;;;;;;;29.21;40.70;98258.94;4135558;28;20642;-50
2023/06/18 09:03:32;;;;;;;4.72;4.40;;;;;;;28.96;38.93;98259.69;4143966;28;20606;-50
2023/06/18 09:05:34;;;;;;;4.68;4.28;;;;;;;29.04;37.46;98251.00;4154501;28;20223;-49
2023/06/18 09:07:36;;;;;;;4.47;4.10;;;;;;;29.26;36.99;98252.97;4167349;28;20769;-48
2023/06/18 09:09:38;;;;;;;5.10;4.70;;;;;;;29.42;37.15;98256.47;4135251;28;20225;-49
2023/06/18 09:11:40;;;;;;;5.32;4.93;;;;;;;28.76;37.82;98256.09;4134526;28;20259;-49
2023/06/18 09:13:43;;;;;;;4.97;4.53;;;;;;;29.44;37.05;98250.44;4169607;28;20208;-49
2023/06/18 09:15:44;;;;;;;4.40;4.10;;;;;;;28.96;35.21;98246.44;4136163;28;20256;-49
2023/06/18 09:17:53;;;;;;;4.55;4.15;;;;;;;29.20;36.17;98248.88;4136099;28;20676;-49
2023/06/18 09:19:55;;;;;;;4.10;3.80;;;;;;;29.18;35.79;98248.41;4134780;28;20215;-49
2023/06/18 09:22:11;;;;;;;4.03;3.72;;;;;;;28.85;35.42;98236.16;4137642;28;20686;-49
2023/06/18 09:24:20;;;;;;;5.90;4.43;;;;;;;29.05;36.09;98244.16;4167522;28;20211;-49
2023/06/18 09:26:22;;;;;;;4.15;3.85;;;;;;;29.62;36.10;98246.72;4170952;28;20661;-49
2023/06/18 09:28:25;;;;;;;6.90;3.47;;;;;;;30.38;35.79;98236.84;4153960;28;20208;-49
2023/06/18 09:30:27;;;;;;;3.28;2.97;;;;;;;30.08;33.88;98239.72;4137556;28;20204;-48
2023/06/18 09:32:28;;;;;;;5.15;3.53;;;;;;;29.70;33.41;98234.34;4137040;28;20758;-49
2023/06/18 09:34:31;;;;;;;3.97;3.58;;;;;;;29.55;34.29;98237.31;4137522;28;20236;-48
2023/06/18 09:36:35;;;;;;;3.75;3.45;;;;;;;30.10;34.35;98231.66;4167877;28;20294;-48
2023/06/18 09:38:37;;;;;;;4.10;3.70;;;;;;;30.64;34.54;98234.75;4135092;28;20275;-48